sensor_id;sensor_type;location;lat;lon;timestamp;P1;durP1;ratioP1;P2;durP2;ratioP2
18082;SDS011;9168;51.194;6.840;2023-04-03T00:01:26;11.70;;;4.80;;
18082;SDS011;9168;51.194;6.840;2023-04-03T00:03:54;15.87;;;5.77;;
18082;SDS011;9168;51.194;6.840;2023-04-03T00:06:21;13.70;;;5.10;;
18082;SDS011;9168;51.194;6.840;2023-04-03T00:08:48;13.97;;;5.30;;
18082;SDS011;9168;51.194;6.840;2023-04-03T00:11:15;12.57;;;4.70;;
18082;SDS011;9168;51.194;6.840;2023-04-03T00:13:43;10.47;;;4.80;;
18082;SDS011;9168;51.194;6.840;2023-04-03T00:16:12;7.60;;;4.63;;
18082;SDS011;9168;51.194;6.840;2023-04-03T00:18:39;9.93;;;4.63;;
18082;SDS011;9168;51.194;6.840;2023-04-03T00:21:06;11.93;;;4.83;;
18082;SDS011;9168;51.194;6.840;2023-04-03T00:23:33;12.73;;;4.63;;
18082;SDS011;9168;51.194;6.840;2023-04-03T00:26:00;8.80;;;4.60;;
18082;SDS011;9168;51.194;6.840;2023-04-03T00:28:27;9.43;;;4.20;;
18082;SDS011;9168;51.194;6.840;2023-04-03T00:30:54;10.00;;;4.47;;
18082;SDS011;9168;51.194;6.840;2023-04-03T00:33:22;12.30;;;5.00;;
18082;SDS011;9168;51.194;6.840;2023-04-03T00:35:50;11.80;;;4.57;;
18082;SDS011;9168;51.194;6.840;2023-04-03T00:38:17;11.67;;;4.57;;
18082;SDS011;9168;51.194;6.840;2023-04-03T00:40:45;17.40;;;4.53;;
18082;SDS011;9168;51.194;6.840;2023-04-03T00:43:14;9.80;;;4.80;;
18082;SDS011;9168;51.194;6.840;2023-04-03T00:45:43;9.70;;;4.47;;
18082;SDS011;9168;51.194;6.840;2023-04-03T00:48:11;11.50;;;4.40;;
18082;SDS011;9168;51.194;6.840;2023-04-03T00:50:43;7.93;;;4.33;;
18082;SDS011;9168;51.194;6.840;2023-04-03T00:53:11;9.97;;;4.37;;
18082;SDS011;9168;51.194;6.840;2023-04-03T00:55:41;9.10;;;4.10;;
18082;SDS011;9168;51.194;6.840;2023-04-03T00:58:09;9.70;;;4.23;;
18082;SDS011;9168;51.194;6.840;2023-04-03T01:00:38;7.60;;;4.30;;
18082;SDS011;9168;51.194;6.840;2023-04-03T01:03:08;11.20;;;4.73;;
18082;SDS011;9168;51.194;6.840;2023-04-03T01:05:35;10.67;;;4.80;;
18082;SDS011;9168;51.194;6.840;2023-04-03T01:08:03;8.97;;;4.67;;
18082;SDS011;9168;51.194;6.840;2023-04-03T01:10:31;10.10;;;4.37;;
18082;SDS011;9168;51.194;6.840;2023-04-03T01:12:58;9.73;;;4.60;;
18082;SDS011;9168;51.194;6.840;2023-04-03T01:15:27;10.67;;;4.87;;
18082;SDS011;9168;51.194;6.840;2023-04-03T01:17:55;8.90;;;4.47;;
18082;SDS011;9168;51.194;6.840;2023-04-03T01:20:34;12.40;;;4.40;;
18082;SDS011;9168;51.194;6.840;2023-04-03T01:23:30;11.50;;;4.83;;
18082;SDS011;9168;51.194;6.840;2023-04-03T01:26:13;10.97;;;4.50;;
18082;SDS011;9168;51.194;6.840;2023-04-03T01:28:40;14.03;;;4.63;;
18082;SDS011;9168;51.194;6.840;2023-04-03T01:31:10;9.63;;;4.77;;
18082;SDS011;9168;51.194;6.840;2023-04-03T01:33:43;11.07;;;5.17;;
18082;SDS011;9168;51.194;6.840;2023-04-03T01:36:13;10.07;;;4.37;;
18082;SDS011;9168;51.194;6.840;2023-04-03T01:38:43;14.47;;;4.80;;
18082;SDS011;9168;51.194;6.840;2023-04-03T01:41:10;15.30;;;5.23;;
18082;SDS011;9168;51.194;6.840;2023-04-03T01:43:36;9.23;;;4.80;;
18082;SDS011;9168;51.194;6.840;2023-04-03T01:46:03;9.93;;;5.13;;
18082;SDS011;9168;51.194;6.840;2023-04-03T01:48:30;11.93;;;5.03;;
18082;SDS011;9168;51.194;6.840;2023-04-03T01:50:58;11.63;;;4.90;;
18082;SDS011;9168;51.194;6.840;2023-04-03T01:53:25;11.70;;;5.33;;
18082;SDS011;9168;51.194;6.840;2023-04-03T01:55:52;13.90;;;6.40;;
18082;SDS011;9168;51.194;6.840;2023-04-03T01:58:19;9.77;;;5.20;;
18082;SDS011;9168;51.194;6.840;2023-04-03T02:00:46;10.73;;;5.23;;
18082;SDS011;9168;51.194;6.840;2023-04-03T02:03:13;13.20;;;5.47;;
18082;SDS011;9168;51.194;6.840;2023-04-03T02:05:41;14.23;;;5.50;;
18082;SDS011;9168;51.194;6.840;2023-04-03T02:08:09;10.13;;;4.90;;
18082;SDS011;9168;51.194;6.840;2023-04-03T02:10:36;13.43;;;4.90;;
18082;SDS011;9168;51.194;6.840;2023-04-03T02:13:03;12.70;;;4.30;;
18082;SDS011;9168;51.194;6.840;2023-04-03T02:15:30;10.97;;;4.10;;
18082;SDS011;9168;51.194;6.840;2023-04-03T02:17:57;11.03;;;4.60;;
18082;SDS011;9168;51.194;6.840;2023-04-03T02:20:24;11.63;;;4.40;;
18082;SDS011;9168;51.194;6.840;2023-04-03T02:22:51;12.60;;;4.20;;
18082;SDS011;9168;51.194;6.840;2023-04-03T02:25:19;9.67;;;4.37;;
18082;SDS011;9168;51.194;6.840;2023-04-03T02:27:46;10.53;;;3.87;;
18082;SDS011;9168;51.194;6.840;2023-04-03T02:30:13;10.93;;;4.23;;
18082;SDS011;9168;51.194;6.840;2023-04-03T02:32:40;8.17;;;3.27;;
18082;SDS011;9168;51.194;6.840;2023-04-03T02:35:07;11.93;;;4.13;;
18082;SDS011;9168;51.194;6.840;2023-04-03T02:37:35;13.93;;;4.17;;
18082;SDS011;9168;51.194;6.840;2023-04-03T02:40:02;9.37;;;4.27;;
18082;SDS011;9168;51.194;6.840;2023-04-03T02:42:31;8.87;;;3.97;;
18082;SDS011;9168;51.194;6.840;2023-04-03T02:44:58;10.57;;;4.03;;
18082;SDS011;9168;51.194;6.840;2023-04-03T02:47:25;12.83;;;3.77;;
18082;SDS011;9168;51.194;6.840;2023-04-03T02:49:52;8.43;;;3.77;;
18082;SDS011;9168;51.194;6.840;2023-04-03T02:52:19;12.40;;;3.63;;
18082;SDS011;9168;51.194;6.840;2023-04-03T02:54:46;10.90;;;4.27;;
18082;SDS011;9168;51.194;6.840;2023-04-03T02:57:13;8.30;;;3.87;;
18082;SDS011;9168;51.194;6.840;2023-04-03T02:59:41;16.67;;;4.50;;
18082;SDS011;9168;51.194;6.840;2023-04-03T03:02:09;9.53;;;4.03;;
18082;SDS011;9168;51.194;6.840;2023-04-03T03:04:36;11.70;;;4.50;;
18082;SDS011;9168;51.194;6.840;2023-04-03T03:07:03;12.97;;;4.10;;
18082;SDS011;9168;51.194;6.840;2023-04-03T03:09:30;11.60;;;4.00;;
18082;SDS011;9168;51.194;6.840;2023-04-03T03:11:58;13.50;;;4.40;;
18082;SDS011;9168;51.194;6.840;2023-04-03T03:14:25;11.03;;;3.93;;
18082;SDS011;9168;51.194;6.840;2023-04-03T03:16:53;8.93;;;3.90;;
18082;SDS011;9168;51.194;6.840;2023-04-03T03:19:20;14.50;;;4.30;;
18082;SDS011;9168;51.194;6.840;2023-04-03T03:21:47;12.47;;;3.97;;
18082;SDS011;9168;51.194;6.840;2023-04-03T03:24:13;9.10;;;3.80;;
18082;SDS011;9168;51.194;6.840;2023-04-03T03:26:41;11.00;;;3.77;;
18082;SDS011;9168;51.194;6.840;2023-04-03T03:29:08;8.13;;;3.63;;
18082;SDS011;9168;51.194;6.840;2023-04-03T03:31:35;13.63;;;3.83;;
18082;SDS011;9168;51.194;6.840;2023-04-03T03:34:03;8.27;;;3.10;;
18082;SDS011;9168;51.194;6.840;2023-04-03T03:36:30;13.93;;;3.47;;
18082;SDS011;9168;51.194;6.840;2023-04-03T03:38:57;10.23;;;3.97;;
18082;SDS011;9168;51.194;6.840;2023-04-03T03:41:24;8.37;;;3.73;;
18082;SDS011;9168;51.194;6.840;2023-04-03T03:43:51;10.10;;;3.70;;
18082;SDS011;9168;51.194;6.840;2023-04-03T03:46:18;8.83;;;3.77;;
18082;SDS011;9168;51.194;6.840;2023-04-03T03:48:44;10.30;;;3.63;;
18082;SDS011;9168;51.194;6.840;2023-04-03T03:51:13;10.57;;;3.38;;
18082;SDS011;9168;51.194;6.840;2023-04-03T03:53:40;18.23;;;3.67;;
18082;SDS011;9168;51.194;6.840;2023-04-03T03:56:07;12.83;;;3.80;;
18082;SDS011;9168;51.194;6.840;2023-04-03T03:58:34;10.60;;;3.80;;
18082;SDS011;9168;51.194;6.840;2023-04-03T04:01:01;11.47;;;3.77;;
18082;SDS011;9168;51.194;6.840;2023-04-03T04:03:30;11.43;;;3.63;;
18082;SDS011;9168;51.194;6.840;2023-04-03T04:05:57;10.63;;;3.37;;
18082;SDS011;9168;51.194;6.840;2023-04-03T04:08:25;9.13;;;3.40;;
18082;SDS011;9168;51.194;6.840;2023-04-03T04:10:52;12.40;;;3.57;;
18082;SDS011;9168;51.194;6.840;2023-04-03T04:13:19;10.67;;;3.63;;
18082;SDS011;9168;51.194;6.840;2023-04-03T04:15:46;7.83;;;3.23;;
18082;SDS011;9168;51.194;6.840;2023-04-03T04:18:13;11.63;;;3.30;;
18082;SDS011;9168;51.194;6.840;2023-04-03T04:20:40;11.70;;;4.07;;
18082;SDS011;9168;51.194;6.840;2023-04-03T04:23:07;11.73;;;3.07;;
18082;SDS011;9168;51.194;6.840;2023-04-03T04:25:35;8.98;;;3.55;;
18082;SDS011;9168;51.194;6.840;2023-04-03T04:28:02;10.30;;;3.50;;
18082;SDS011;9168;51.194;6.840;2023-04-03T04:30:29;9.40;;;3.50;;
18082;SDS011;9168;51.194;6.840;2023-04-03T04:32:56;18.53;;;4.07;;
18082;SDS011;9168;51.194;6.840;2023-04-03T04:35:22;11.50;;;3.73;;
18082;SDS011;9168;51.194;6.840;2023-04-03T04:37:49;10.80;;;3.80;;
18082;SDS011;9168;51.194;6.840;2023-04-03T04:40:16;12.60;;;3.70;;
18082;SDS011;9168;51.194;6.840;2023-04-03T04:42:45;10.93;;;3.33;;
18082;SDS011;9168;51.194;6.840;2023-04-03T04:45:12;14.63;;;3.90;;
18082;SDS011;9168;51.194;6.840;2023-04-03T04:47:39;8.77;;;2.90;;
18082;SDS011;9168;51.194;6.840;2023-04-03T04:50:07;15.83;;;3.77;;
18082;SDS011;9168;51.194;6.840;2023-04-03T04:52:34;12.17;;;4.00;;
18082;SDS011;9168;51.194;6.840;2023-04-03T04:55:01;15.20;;;3.53;;
18082;SDS011;9168;51.194;6.840;2023-04-03T04:57:29;9.40;;;3.17;;
18082;SDS011;9168;51.194;6.840;2023-04-03T04:59:57;9.40;;;3.50;;
18082;SDS011;9168;51.194;6.840;2023-04-03T05:02:24;8.47;;;3.37;;
18082;SDS011;9168;51.194;6.840;2023-04-03T05:04:50;11.47;;;3.70;;
18082;SDS011;9168;51.194;6.840;2023-04-03T05:07:17;11.67;;;3.67;;
18082;SDS011;9168;51.194;6.840;2023-04-03T05:09:44;11.83;;;3.27;;
18082;SDS011;9168;51.194;6.840;2023-04-03T05:12:11;9.93;;;3.07;;
18082;SDS011;9168;51.194;6.840;2023-04-03T05:14:38;9.93;;;3.07;;
18082;SDS011;9168;51.194;6.840;2023-04-03T05:17:06;8.10;;;2.93;;
18082;SDS011;9168;51.194;6.840;2023-04-03T05:19:33;9.53;;;3.10;;
18082;SDS011;9168;51.194;6.840;2023-04-03T05:22:00;13.47;;;3.00;;
18082;SDS011;9168;51.194;6.840;2023-04-03T05:24:27;7.43;;;3.00;;
18082;SDS011;9168;51.194;6.840;2023-04-03T05:26:54;10.17;;;3.30;;
18082;SDS011;9168;51.194;6.840;2023-04-03T05:29:21;9.07;;;2.90;;
18082;SDS011;9168;51.194;6.840;2023-04-03T05:31:48;8.07;;;2.97;;
18082;SDS011;9168;51.194;6.840;2023-04-03T05:34:16;13.23;;;3.77;;
18082;SDS011;9168;51.194;6.840;2023-04-03T05:36:43;10.10;;;2.60;;
18082;SDS011;9168;51.194;6.840;2023-04-03T05:39:10;10.97;;;2.97;;
18082;SDS011;9168;51.194;6.840;2023-04-03T05:41:37;11.57;;;2.70;;
18082;SDS011;9168;51.194;6.840;2023-04-03T05:44:04;9.23;;;2.77;;
18082;SDS011;9168;51.194;6.840;2023-04-03T05:46:31;9.43;;;2.83;;
18082;SDS011;9168;51.194;6.840;2023-04-03T05:48:58;8.70;;;2.80;;
18082;SDS011;9168;51.194;6.840;2023-04-03T05:51:28;11.83;;;2.90;;
18082;SDS011;9168;51.194;6.840;2023-04-03T05:53:58;10.70;;;3.00;;
18082;SDS011;9168;51.194;6.840;2023-04-03T05:56:29;11.30;;;3.10;;
18082;SDS011;9168;51.194;6.840;2023-04-03T05:58:55;11.23;;;3.03;;
18082;SDS011;9168;51.194;6.840;2023-04-03T06:01:22;13.23;;;3.07;;
18082;SDS011;9168;51.194;6.840;2023-04-03T06:03:49;10.83;;;3.13;;
18082;SDS011;9168;51.194;6.840;2023-04-03T06:06:16;7.63;;;2.70;;
18082;SDS011;9168;51.194;6.840;2023-04-03T06:08:44;9.63;;;2.63;;
18082;SDS011;9168;51.194;6.840;2023-04-03T06:11:11;12.23;;;3.17;;
18082;SDS011;9168;51.194;6.840;2023-04-03T06:13:38;11.70;;;2.53;;
18082;SDS011;9168;51.194;6.840;2023-04-03T06:16:05;8.30;;;2.47;;
18082;SDS011;9168;51.194;6.840;2023-04-03T06:18:34;8.00;;;2.60;;
18082;SDS011;9168;51.194;6.840;2023-04-03T06:21:01;14.17;;;3.70;;
18082;SDS011;9168;51.194;6.840;2023-04-03T06:23:28;8.03;;;3.17;;
18082;SDS011;9168;51.194;6.840;2023-04-03T06:25:56;14.15;;;3.03;;
18082;SDS011;9168;51.194;6.840;2023-04-03T06:28:23;8.00;;;2.80;;
18082;SDS011;9168;51.194;6.840;2023-04-03T06:30:50;12.17;;;2.97;;
18082;SDS011;9168;51.194;6.840;2023-04-03T06:33:17;11.50;;;3.13;;
18082;SDS011;9168;51.194;6.840;2023-04-03T06:35:44;12.77;;;3.00;;
18082;SDS011;9168;51.194;6.840;2023-04-03T06:38:11;8.07;;;2.83;;
18082;SDS011;9168;51.194;6.840;2023-04-03T06:40:38;7.83;;;2.40;;
18082;SDS011;9168;51.194;6.840;2023-04-03T06:43:06;8.13;;;2.57;;
18082;SDS011;9168;51.194;6.840;2023-04-03T06:45:33;9.63;;;3.33;;
18082;SDS011;9168;51.194;6.840;2023-04-03T06:48:01;13.20;;;2.60;;
18082;SDS011;9168;51.194;6.840;2023-04-03T06:50:28;8.57;;;2.80;;
18082;SDS011;9168;51.194;6.840;2023-04-03T06:52:55;9.07;;;2.43;;
18082;SDS011;9168;51.194;6.840;2023-04-03T06:55:21;9.85;;;2.85;;
18082;SDS011;9168;51.194;6.840;2023-04-03T06:57:51;8.50;;;2.90;;
18082;SDS011;9168;51.194;6.840;2023-04-03T07:00:19;11.47;;;3.23;;
18082;SDS011;9168;51.194;6.840;2023-04-03T07:02:47;8.50;;;2.83;;
18082;SDS011;9168;51.194;6.840;2023-04-03T07:05:14;9.37;;;2.67;;
18082;SDS011;9168;51.194;6.840;2023-04-03T07:07:40;10.53;;;2.80;;
18082;SDS011;9168;51.194;6.840;2023-04-03T07:10:08;8.83;;;2.90;;
18082;SDS011;9168;51.194;6.840;2023-04-03T07:12:36;9.32;;;2.50;;
18082;SDS011;9168;51.194;6.840;2023-04-03T07:15:03;11.00;;;2.43;;
18082;SDS011;9168;51.194;6.840;2023-04-03T07:17:32;12.77;;;2.83;;
18082;SDS011;9168;51.194;6.840;2023-04-03T07:19:59;12.33;;;2.87;;
18082;SDS011;9168;51.194;6.840;2023-04-03T07:22:26;7.70;;;2.40;;
18082;SDS011;9168;51.194;6.840;2023-04-03T07:24:53;13.47;;;2.80;;
18082;SDS011;9168;51.194;6.840;2023-04-03T07:27:20;14.27;;;3.10;;
18082;SDS011;9168;51.194;6.840;2023-04-03T07:29:46;7.67;;;2.50;;
18082;SDS011;9168;51.194;6.840;2023-04-03T07:32:14;7.47;;;2.37;;
18082;SDS011;9168;51.194;6.840;2023-04-03T07:34:43;9.53;;;2.70;;
18082;SDS011;9168;51.194;6.840;2023-04-03T07:37:10;12.67;;;2.90;;
18082;SDS011;9168;51.194;6.840;2023-04-03T07:39:37;6.27;;;2.03;;
18082;SDS011;9168;51.194;6.840;2023-04-03T07:42:04;6.63;;;2.53;;
18082;SDS011;9168;51.194;6.840;2023-04-03T07:44:32;6.70;;;2.00;;
18082;SDS011;9168;51.194;6.840;2023-04-03T07:47:00;15.40;;;2.50;;
18082;SDS011;9168;51.194;6.840;2023-04-03T07:49:27;13.05;;;2.65;;
18082;SDS011;9168;51.194;6.840;2023-04-03T07:51:55;12.07;;;2.63;;
18082;SDS011;9168;51.194;6.840;2023-04-03T07:54:22;11.30;;;2.80;;
18082;SDS011;9168;51.194;6.840;2023-04-03T07:56:49;12.82;;;3.08;;
18082;SDS011;9168;51.194;6.840;2023-04-03T07:59:16;6.95;;;2.15;;
18082;SDS011;9168;51.194;6.840;2023-04-03T08:01:43;13.23;;;2.30;;
18082;SDS011;9168;51.194;6.840;2023-04-03T08:04:10;9.07;;;1.95;;
18082;SDS011;9168;51.194;6.840;2023-04-03T08:06:36;10.50;;;2.00;;
18082;SDS011;9168;51.194;6.840;2023-04-03T08:09:05;7.75;;;1.90;;
18082;SDS011;9168;51.194;6.840;2023-04-03T08:11:32;11.77;;;2.50;;
18082;SDS011;9168;51.194;6.840;2023-04-03T08:13:58;12.47;;;2.17;;
18082;SDS011;9168;51.194;6.840;2023-04-03T08:16:26;4.57;;;1.70;;
18082;SDS011;9168;51.194;6.840;2023-04-03T08:18:57;10.30;;;2.10;;
18082;SDS011;9168;51.194;6.840;2023-04-03T08:21:25;6.30;;;1.77;;
18082;SDS011;9168;51.194;6.840;2023-04-03T08:23:52;6.45;;;1.88;;
18082;SDS011;9168;51.194;6.840;2023-04-03T08:26:21;6.82;;;1.50;;
18082;SDS011;9168;51.194;6.840;2023-04-03T08:28:53;8.43;;;2.30;;
18082;SDS011;9168;51.194;6.840;2023-04-03T08:31:21;8.90;;;1.80;;
18082;SDS011;9168;51.194;6.840;2023-04-03T08:33:48;5.38;;;1.80;;
18082;SDS011;9168;51.194;6.840;2023-04-03T08:36:18;5.90;;;1.73;;
18082;SDS011;9168;51.194;6.840;2023-04-03T08:38:48;5.30;;;1.80;;
18082;SDS011;9168;51.194;6.840;2023-04-03T08:41:16;7.57;;;1.60;;
18082;SDS011;9168;51.194;6.840;2023-04-03T08:44:01;6.05;;;1.58;;
18082;SDS011;9168;51.194;6.840;2023-04-03T08:46:38;7.97;;;1.85;;
18082;SDS011;9168;51.194;6.840;2023-04-03T08:49:14;5.03;;;1.35;;
18082;SDS011;9168;51.194;6.840;2023-04-03T08:51:48;9.20;;;2.13;;
18082;SDS011;9168;51.194;6.840;2023-04-03T08:54:20;8.30;;;2.00;;
18082;SDS011;9168;51.194;6.840;2023-04-03T08:56:55;6.72;;;1.55;;
18082;SDS011;9168;51.194;6.840;2023-04-03T08:59:24;6.45;;;1.33;;
18082;SDS011;9168;51.194;6.840;2023-04-03T09:01:55;9.13;;;1.55;;
18082;SDS011;9168;51.194;6.840;2023-04-03T09:04:23;5.80;;;1.40;;
18082;SDS011;9168;51.194;6.840;2023-04-03T09:06:54;8.52;;;1.90;;
18082;SDS011;9168;51.194;6.840;2023-04-03T09:09:29;5.10;;;1.50;;
18082;SDS011;9168;51.194;6.840;2023-04-03T09:12:03;5.93;;;1.30;;
18082;SDS011;9168;51.194;6.840;2023-04-03T09:14:40;8.13;;;1.75;;
18082;SDS011;9168;51.194;6.840;2023-04-03T09:17:14;3.25;;;1.30;;
18082;SDS011;9168;51.194;6.840;2023-04-03T09:19:48;5.80;;;1.42;;
18082;SDS011;9168;51.194;6.840;2023-04-03T09:22:22;7.68;;;1.70;;
18082;SDS011;9168;51.194;6.840;2023-04-03T09:24:53;8.93;;;1.73;;
18082;SDS011;9168;51.194;6.840;2023-04-03T09:27:26;8.18;;;1.70;;
18082;SDS011;9168;51.194;6.840;2023-04-03T09:29:53;7.63;;;1.90;;
18082;SDS011;9168;51.194;6.840;2023-04-03T09:32:25;7.25;;;1.75;;
18082;SDS011;9168;51.194;6.840;2023-04-03T09:34:55;8.80;;;1.90;;
18082;SDS011;9168;51.194;6.840;2023-04-03T09:37:35;6.20;;;1.55;;
18082;SDS011;9168;51.194;6.840;2023-04-03T09:40:04;8.18;;;1.73;;
18082;SDS011;9168;51.194;6.840;2023-04-03T09:42:45;7.18;;;1.45;;
18082;SDS011;9168;51.194;6.840;2023-04-03T09:45:21;9.93;;;1.70;;
18082;SDS011;9168;51.194;6.840;2023-04-03T09:47:56;5.50;;;1.60;;
18082;SDS011;9168;51.194;6.840;2023-04-03T09:50:31;12.43;;;1.92;;
18082;SDS011;9168;51.194;6.840;2023-04-03T09:52:59;11.88;;;2.25;;
18082;SDS011;9168;51.194;6.840;2023-04-03T09:55:32;4.75;;;1.60;;
18082;SDS011;9168;51.194;6.840;2023-04-03T09:58:22;6.60;;;1.60;;
18082;SDS011;9168;51.194;6.840;2023-04-03T10:00:55;4.88;;;1.40;;
18082;SDS011;9168;51.194;6.840;2023-04-03T10:03:24;7.13;;;1.45;;
18082;SDS011;9168;51.194;6.840;2023-04-03T10:05:54;6.28;;;1.50;;
18082;SDS011;9168;51.194;6.840;2023-04-03T10:08:23;13.35;;;2.10;;
18082;SDS011;9168;51.194;6.840;2023-04-03T10:11:06;3.53;;;1.50;;
18082;SDS011;9168;51.194;6.840;2023-04-03T10:13:37;7.47;;;1.63;;
18082;SDS011;9168;51.194;6.840;2023-04-03T10:16:16;5.95;;;1.63;;
18082;SDS011;9168;51.194;6.840;2023-04-03T10:18:46;7.55;;;1.30;;
18082;SDS011;9168;51.194;6.840;2023-04-03T10:21:20;5.13;;;1.25;;
18082;SDS011;9168;51.194;6.840;2023-04-03T10:24:02;6.35;;;1.67;;
18082;SDS011;9168;51.194;6.840;2023-04-03T10:26:38;7.32;;;1.45;;
18082;SDS011;9168;51.194;6.840;2023-04-03T10:29:15;7.30;;;1.70;;
18082;SDS011;9168;51.194;6.840;2023-04-03T10:31:50;3.72;;;1.08;;
18082;SDS011;9168;51.194;6.840;2023-04-03T10:34:23;6.47;;;1.25;;
18082;SDS011;9168;51.194;6.840;2023-04-03T10:36:53;3.35;;;1.27;;
18082;SDS011;9168;51.194;6.840;2023-04-03T10:39:28;6.28;;;1.55;;
18082;SDS011;9168;51.194;6.840;2023-04-03T10:42:02;8.98;;;1.50;;
18082;SDS011;9168;51.194;6.840;2023-04-03T10:44:37;6.70;;;1.50;;
18082;SDS011;9168;51.194;6.840;2023-04-03T10:47:18;2.75;;;1.20;;
18082;SDS011;9168;51.194;6.840;2023-04-03T10:49:53;3.33;;;1.30;;
18082;SDS011;9168;51.194;6.840;2023-04-03T10:52:26;4.70;;;1.67;;
18082;SDS011;9168;51.194;6.840;2023-04-03T10:55:02;5.28;;;1.30;;
18082;SDS011;9168;51.194;6.840;2023-04-03T10:57:43;4.97;;;1.45;;
18082;SDS011;9168;51.194;6.840;2023-04-03T11:00:15;7.68;;;1.30;;
18082;SDS011;9168;51.194;6.840;2023-04-03T11:02:48;4.80;;;1.20;;
18082;SDS011;9168;51.194;6.840;2023-04-03T11:05:21;5.55;;;1.40;;
18082;SDS011;9168;51.194;6.840;2023-04-03T11:07:56;4.13;;;1.30;;
18082;SDS011;9168;51.194;6.840;2023-04-03T11:10:28;4.10;;;1.45;;
18082;SDS011;9168;51.194;6.840;2023-04-03T11:13:02;4.60;;;1.50;;
18082;SDS011;9168;51.194;6.840;2023-04-03T11:15:38;3.75;;;1.40;;
18082;SDS011;9168;51.194;6.840;2023-04-03T11:18:06;3.22;;;1.27;;
18082;SDS011;9168;51.194;6.840;2023-04-03T11:20:37;3.08;;;1.35;;
18082;SDS011;9168;51.194;6.840;2023-04-03T11:23:11;3.90;;;1.70;;
18082;SDS011;9168;51.194;6.840;2023-04-03T11:25:45;4.50;;;1.73;;
18082;SDS011;9168;51.194;6.840;2023-04-03T11:28:17;3.05;;;1.27;;
18082;SDS011;9168;51.194;6.840;2023-04-03T11:30:47;3.90;;;1.48;;
18082;SDS011;9168;51.194;6.840;2023-04-03T11:33:21;5.35;;;1.33;;
18082;SDS011;9168;51.194;6.840;2023-04-03T11:35:57;3.35;;;1.40;;
18082;SDS011;9168;51.194;6.840;2023-04-03T11:38:30;6.15;;;1.50;;
18082;SDS011;9168;51.194;6.840;2023-04-03T11:41:01;3.42;;;1.15;;
18082;SDS011;9168;51.194;6.840;2023-04-03T11:43:29;4.00;;;1.50;;
18082;SDS011;9168;51.194;6.840;2023-04-03T11:45:58;5.18;;;1.50;;
18082;SDS011;9168;51.194;6.840;2023-04-03T11:57:22;3.90;;;1.50;;
18082;SDS011;9168;51.194;6.840;2023-04-03T12:03:31;4.75;;;1.90;;
18082;SDS011;9168;51.194;6.840;2023-04-03T12:09:22;3.67;;;1.55;;
18082;SDS011;9168;51.194;6.840;2023-04-03T12:11:52;4.25;;;1.80;;
18082;SDS011;9168;51.194;6.840;2023-04-03T12:14:21;2.83;;;1.40;;
18082;SDS011;9168;51.194;6.840;2023-04-03T12:16:50;3.95;;;1.70;;
18082;SDS011;9168;51.194;6.840;2023-04-03T12:19:36;2.72;;;1.50;;
18082;SDS011;9168;51.194;6.840;2023-04-03T12:22:16;3.08;;;1.50;;
18082;SDS011;9168;51.194;6.840;2023-04-03T12:24:46;3.25;;;1.52;;
18082;SDS011;9168;51.194;6.840;2023-04-03T12:27:27;7.53;;;1.80;;
18082;SDS011;9168;51.194;6.840;2023-04-03T12:30:07;6.93;;;1.80;;
18082;SDS011;9168;51.194;6.840;2023-04-03T12:32:48;8.57;;;1.60;;
18082;SDS011;9168;51.194;6.840;2023-04-03T12:35:34;4.15;;;1.90;;
18082;SDS011;9168;51.194;6.840;2023-04-03T12:38:16;5.63;;;2.15;;
18082;SDS011;9168;51.194;6.840;2023-04-03T12:41:03;3.33;;;1.67;;
18082;SDS011;9168;51.194;6.840;2023-04-03T12:43:43;4.68;;;1.58;;
18082;SDS011;9168;51.194;6.840;2023-04-03T12:46:37;9.48;;;2.00;;
18082;SDS011;9168;51.194;6.840;2023-04-03T12:49:12;10.63;;;2.75;;
18082;SDS011;9168;51.194;6.840;2023-04-03T12:51:50;37.40;;;5.95;;
18082;SDS011;9168;51.194;6.840;2023-04-03T12:54:19;11.15;;;2.55;;
18082;SDS011;9168;51.194;6.840;2023-04-03T12:56:49;9.13;;;1.70;;
18082;SDS011;9168;51.194;6.840;2023-04-03T12:59:18;5.75;;;1.92;;
18082;SDS011;9168;51.194;6.840;2023-04-03T13:01:52;13.48;;;5.40;;
18082;SDS011;9168;51.194;6.840;2023-04-03T13:04:20;15.95;;;3.45;;
18082;SDS011;9168;51.194;6.840;2023-04-03T13:06:47;14.07;;;2.53;;
18082;SDS011;9168;51.194;6.840;2023-04-03T13:09:19;9.43;;;2.20;;
18082;SDS011;9168;51.194;6.840;2023-04-03T13:11:48;4.53;;;1.70;;
18082;SDS011;9168;51.194;6.840;2023-04-03T13:14:18;4.60;;;1.70;;
18082;SDS011;9168;51.194;6.840;2023-04-03T13:16:53;5.20;;;2.03;;
18082;SDS011;9168;51.194;6.840;2023-04-03T13:19:22;6.53;;;2.15;;
18082;SDS011;9168;51.194;6.840;2023-04-03T13:21:49;4.72;;;1.85;;
18082;SDS011;9168;51.194;6.840;2023-04-03T13:24:24;4.28;;;1.77;;
18082;SDS011;9168;51.194;6.840;2023-04-03T13:26:52;5.22;;;1.83;;
18082;SDS011;9168;51.194;6.840;2023-04-03T13:29:22;4.85;;;1.75;;
18082;SDS011;9168;51.194;6.840;2023-04-03T13:31:52;6.80;;;2.00;;
18082;SDS011;9168;51.194;6.840;2023-04-03T13:34:21;6.40;;;1.90;;
18082;SDS011;9168;51.194;6.840;2023-04-03T13:37:00;7.43;;;2.13;;
18082;SDS011;9168;51.194;6.840;2023-04-03T13:39:31;5.95;;;1.83;;
18082;SDS011;9168;51.194;6.840;2023-04-03T13:41:59;3.85;;;1.90;;
18082;SDS011;9168;51.194;6.840;2023-04-03T13:44:33;3.67;;;1.88;;
18082;SDS011;9168;51.194;6.840;2023-04-03T13:47:14;3.67;;;1.48;;
18082;SDS011;9168;51.194;6.840;2023-04-03T13:49:44;7.05;;;1.90;;
18082;SDS011;9168;51.194;6.840;2023-04-03T13:52:22;8.73;;;2.00;;
18082;SDS011;9168;51.194;6.840;2023-04-03T13:54:54;6.03;;;2.03;;
18082;SDS011;9168;51.194;6.840;2023-04-03T13:57:23;8.77;;;1.95;;
18082;SDS011;9168;51.194;6.840;2023-04-03T13:59:50;5.28;;;1.80;;
18082;SDS011;9168;51.194;6.840;2023-04-03T14:02:18;7.82;;;2.22;;
18082;SDS011;9168;51.194;6.840;2023-04-03T14:04:48;7.70;;;1.75;;
18082;SDS011;9168;51.194;6.840;2023-04-03T14:07:21;4.80;;;1.90;;
18082;SDS011;9168;51.194;6.840;2023-04-03T14:09:49;10.80;;;2.08;;
18082;SDS011;9168;51.194;6.840;2023-04-03T14:12:18;4.25;;;1.90;;
18082;SDS011;9168;51.194;6.840;2023-04-03T14:14:51;4.93;;;1.90;;
18082;SDS011;9168;51.194;6.840;2023-04-03T14:17:19;64.13;;;6.57;;
18082;SDS011;9168;51.194;6.840;2023-04-03T14:19:48;40.80;;;4.03;;
18082;SDS011;9168;51.194;6.840;2023-04-03T14:22:16;22.13;;;3.05;;
18082;SDS011;9168;51.194;6.840;2023-04-03T14:24:46;8.75;;;2.20;;
18082;SDS011;9168;51.194;6.840;2023-04-03T14:27:15;27.08;;;2.67;;
18082;SDS011;9168;51.194;6.840;2023-04-03T14:29:46;6.50;;;1.90;;
18082;SDS011;9168;51.194;6.840;2023-04-03T14:32:15;8.68;;;2.00;;
18082;SDS011;9168;51.194;6.840;2023-04-03T14:34:43;25.45;;;3.28;;
18082;SDS011;9168;51.194;6.840;2023-04-03T14:37:11;5.07;;;1.80;;
18082;SDS011;9168;51.194;6.840;2023-04-03T14:39:39;7.15;;;1.83;;
18082;SDS011;9168;51.194;6.840;2023-04-03T14:42:10;5.47;;;2.25;;
18082;SDS011;9168;51.194;6.840;2023-04-03T14:44:40;3.38;;;1.85;;
18082;SDS011;9168;51.194;6.840;2023-04-03T14:47:09;5.80;;;1.90;;
18082;SDS011;9168;51.194;6.840;2023-04-03T14:49:37;8.63;;;2.25;;
18082;SDS011;9168;51.194;6.840;2023-04-03T14:52:04;5.80;;;1.85;;
18082;SDS011;9168;51.194;6.840;2023-04-03T14:54:31;6.18;;;1.70;;
18082;SDS011;9168;51.194;6.840;2023-04-03T14:56:58;6.47;;;2.00;;
18082;SDS011;9168;51.194;6.840;2023-04-03T14:59:26;4.60;;;1.60;;
18082;SDS011;9168;51.194;6.840;2023-04-03T15:01:55;7.88;;;1.85;;
18082;SDS011;9168;51.194;6.840;2023-04-03T15:04:22;6.82;;;1.90;;
18082;SDS011;9168;51.194;6.840;2023-04-03T15:06:50;3.63;;;1.88;;
18082;SDS011;9168;51.194;6.840;2023-04-03T15:09:19;7.93;;;2.55;;
18082;SDS011;9168;51.194;6.840;2023-04-03T15:11:47;8.77;;;2.35;;
18082;SDS011;9168;51.194;6.840;2023-04-03T15:14:14;6.30;;;2.10;;
18082;SDS011;9168;51.194;6.840;2023-04-03T15:16:41;4.45;;;1.73;;
18082;SDS011;9168;51.194;6.840;2023-04-03T15:19:10;5.38;;;1.63;;
18082;SDS011;9168;51.194;6.840;2023-04-03T15:21:37;6.88;;;1.90;;
18082;SDS011;9168;51.194;6.840;2023-04-03T15:24:04;4.47;;;1.58;;
18082;SDS011;9168;51.194;6.840;2023-04-03T15:26:31;4.97;;;1.80;;